Time,TemperatureF,DewpointF,PressureIn,WindDirection,WindDirectionDegrees,WindSpeedMPH,WindSpeedGustMPH,Humidity,HourlyPrecipIn,Conditions,Clouds,dailyrainin,SoftwareType,DateUTC
2013-07-05 00:01:00,79.5,74.9,29.99,SSW,197,5.0,10.0,86,0.00,,SKC,0.00,VWS V14.01,2013-07-05 05:01:00,
2013-07-05 00:06:00,79.4,75.2,29.99,SSW,193,2.0,13.0,87,0.00,,SKC,0.00,VWS V14.01,2013-07-05 05:06:00,
2013-07-05 00:11:00,79.4,74.5,29.99,SSW,200,8.0,18.0,85,0.00,,SKC,0.00,VWS V14.01,2013-07-05 05:11:00,
2013-07-05 00:16:00,79.4,74.5,29.99,South,188,7.0,18.0,85,0.00,,SKC,0.00,VWS V14.01,2013-07-05 05:16:00,
2013-07-05 00:21:00,79.4,74.5,29.99,SSE,151,5.0,18.0,85,0.00,,SKC,0.00,VWS V14.01,2013-07-05 05:21:00,
2013-07-05 00:26:00,79.4,74.8,29.99,SSW,211,6.0,18.0,86,0.00,,SKC,0.00,VWS V14.01,2013-07-05 05:26:00,
2013-07-05 00:31:00,79.3,74.8,29.99,SSW,192,1.0,6.0,86,0.00,,SKC,0.00,VWS V14.01,2013-07-05 05:31:00,
2013-07-05 00:36:00,79.2,74.7,29.99,SSW,205,5.0,13.0,86,0.00,,SKC,0.00,VWS V14.01,2013-07-05 05:36:00,
2013-07-05 00:41:00,79.2,74.7,29.99,SSW,202,6.0,13.0,86,0.00,,SKC,0.00,VWS V14.01,2013-07-05 05:41:00,
2013-07-05 00:46:00,79.1,74.6,29.98,SW,231,0.0,13.0,86,0.00,,SKC,0.00,VWS V14.01,2013-07-05 05:46:00,
2013-07-05 00:51:00,79.0,74.5,29.98,South,189,4.0,13.0,86,0.00,,SKC,0.00,VWS V14.01,2013-07-05 05:51:00,
2013-07-05 00:56:00,78.9,74.4,29.98,SSW,199,0.0,13.0,86,0.00,,SKC,0.00,VWS V14.01,2013-07-05 05:56:00,
2013-07-05 01:01:00,78.8,74.3,29.98,SW,217,2.0,6.0,86,0.00,,SKC,0.00,VWS V14.01,2013-07-05 06:01:00,
2013-07-05 01:06:00,78.7,74.5,29.98,SSW,205,5.0,7.0,87,0.00,,SKC,0.00,VWS V14.01,2013-07-05 06:06:00,
2013-07-05 01:11:00,78.7,74.2,29.98,South,178,7.0,11.0,86,0.00,,SKC,0.00,VWS V14.01,2013-07-05 06:11:00,
2013-07-05 01:16:00,78.8,74.3,29.98,SSW,205,0.0,11.0,86,0.00,,SKC,0.00,VWS V14.01,2013-07-05 06:16:00,
2013-07-05 01:21:00,78.7,74.2,29.98,SSW,204,6.0,11.0,86,0.00,,SKC,0.00,VWS V14.01,2013-07-05 06:21:00,
2013-07-05 01:26:00,78.7,74.2,29.98,SSW,196,9.0,11.0,86,0.00,,SKC,0.00,VWS V14.01,2013-07-05 06:26:00,
2013-07-05 01:31:00,78.7,73.8,29.98,SW,216,6.0,6.0,85,0.00,,SKC,0.00,VWS V14.01,2013-07-05 06:31:00,
2013-07-05 01:36:00,78.6,74.1,29.98,SW,215,2.0,6.0,86,0.00,,SKC,0.00,VWS V14.01,2013-07-05 06:36:00,
2013-07-05 01:41:00,78.5,74.0,29.98,SW,215,0.0,6.0,86,0.00,,SKC,0.00,VWS V14.01,2013-07-05 06:41:00,
2013-07-05 01:46:00,78.5,74.3,29.98,SW,215,0.0,6.0,87,0.00,,SKC,0.00,VWS V14.01,2013-07-05 06:46:00,
2013-07-05 01:51:00,78.4,74.2,29.98,SW,215,0.0,6.0,87,0.00,,SKC,0.00,VWS V14.01,2013-07-05 06:51:00,
2013-07-05 01:56:00,78.4,74.2,29.98,SW,215,0.0,6.0,87,0.00,,SKC,0.00,VWS V14.01,2013-07-05 06:56:00,
2013-07-05 02:01:00,78.2,74.4,29.98,SW,215,0.0,0.0,88,0.00,,SKC,0.00,VWS V14.01,2013-07-05 07:01:00,
2013-07-05 02:06:00,78.0,74.2,29.98,SSW,196,2.0,5.0,88,0.00,,SKC,0.00,VWS V14.01,2013-07-05 07:06:00,
2013-07-05 02:11:00,78.1,74.3,29.98,SSW,196,0.0,7.0,88,0.00,,SKC,0.00,VWS V14.01,2013-07-05 07:11:00,
2013-07-05 02:16:00,78.1,74.3,29.98,SSW,196,1.0,7.0,88,0.00,,SKC,0.00,VWS V14.01,2013-07-05 07:16:00,
2013-07-05 02:21:00,78.2,74.4,29.98,SSW,196,0.0,7.0,88,0.00,,SKC,0.00,VWS V14.01,2013-07-05 07:21:00,
2013-07-05 02:26:00,78.3,74.5,29.97,SSW,196,0.0,7.0,88,0.00,,SKC,0.00,VWS V14.01,2013-07-05 07:26:00,
2013-07-05 02:31:00,78.3,74.5,29.98,SSW,196,0.0,0.0,88,0.00,,SKC,0.00,VWS V14.01,2013-07-05 07:31:00,
2013-07-05 02:36:00,78.3,74.5,29.98,SSW,196,0.0,5.0,88,0.00,,SKC,0.00,VWS V14.01,2013-07-05 07:36:00,
2013-07-05 02:41:00,78.2,74.4,29.98,SSW,196,0.0,5.0,88,0.00,,SKC,0.00,VWS V14.01,2013-07-05 07:41:00,
2013-07-05 02:46:00,78.0,74.2,29.98,SSW,196,0.0,5.0,88,0.00,,SKC,0.00,VWS V14.01,2013-07-05 07:46:00,
2013-07-05 02:51:00,77.6,74.1,29.98,SSW,196,0.0,5.0,89,0.00,,SKC,0.00,VWS V14.01,2013-07-05 07:51:00,
2013-07-05 02:56:00,77.2,73.7,29.98,SSW,196,0.0,5.0,89,0.00,,SKC,0.00,VWS V14.01,2013-07-05 07:56:00,
2013-07-05 03:01:00,76.9,73.4,29.98,SSW,196,0.0,0.0,89,0.01,,SKC,0.01,VWS V14.01,2013-07-05 08:01:00,
2013-07-05 03:06:00,76.7,73.2,29.98,SSW,196,0.0,0.0,89,0.01,,SKC,0.01,VWS V14.01,2013-07-05 08:06:00,
2013-07-05 03:11:00,76.5,73.0,29.98,SSW,196,2.0,3.0,89,0.01,,SKC,0.01,VWS V14.01,2013-07-05 08:11:00,
2013-07-05 03:16:00,76.0,72.5,29.98,SSE,163,0.0,3.0,89,0.01,,SKC,0.01,VWS V14.01,2013-07-05 08:16:00,
2013-07-05 03:21:00,75.9,72.4,29.98,SSE,163,2.0,4.0,89,0.01,,SKC,0.01,VWS V14.01,2013-07-05 08:21:00,
2013-07-05 03:26:00,75.7,71.9,29.98,SSE,163,0.0,4.0,88,0.01,,SKC,0.01,VWS V14.01,2013-07-05 08:26:00,
2013-07-05 03:31:00,75.7,71.9,29.98,SSE,163,0.0,0.0,88,0.01,,SKC,0.01,VWS V14.01,2013-07-05 08:31:00,
2013-07-05 03:36:00,75.6,71.8,29.98,SSE,163,0.0,1.0,88,0.01,,SKC,0.01,VWS V14.01,2013-07-05 08:36:00,
2013-07-05 03:41:00,75.7,71.9,29.98,SSE,163,0.0,1.0,88,0.01,,SKC,0.01,VWS V14.01,2013-07-05 08:41:00,
2013-07-05 03:46:00,75.7,71.9,29.98,SSE,163,0.0,1.0,88,0.01,,SKC,0.01,VWS V14.01,2013-07-05 08:46:00,
2013-07-05 03:51:00,75.7,71.9,29.98,SSE,163,0.0,1.0,88,0.01,,SKC,0.01,VWS V14.01,2013-07-05 08:51:00,
2013-07-05 03:56:00,75.6,71.8,29.98,SSE,163,0.0,1.0,88,0.01,,SKC,0.01,VWS V14.01,2013-07-05 08:56:00,
2013-07-05 04:01:00,75.5,71.7,29.98,SSE,163,0.0,0.0,88,0.00,,SKC,0.01,VWS V14.01,2013-07-05 09:01:00,
2013-07-05 04:06:00,75.3,71.5,29.98,SSE,163,0.0,0.0,88,0.00,,SKC,0.01,VWS V14.01,2013-07-05 09:06:00,
2013-07-05 04:11:00,75.2,71.1,29.98,SSE,163,0.0,0.0,87,0.00,,SKC,0.01,VWS V14.01,2013-07-05 09:11:00,
2013-07-05 04:16:00,75.0,71.2,29.98,SSE,163,0.0,1.0,88,0.00,,SKC,0.01,VWS V14.01,2013-07-05 09:16:00,
2013-07-05 04:21:00,75.0,70.9,29.98,SSE,163,0.0,1.0,87,0.00,,SKC,0.01,VWS V14.01,2013-07-05 09:21:00,
2013-07-05 04:26:00,74.9,70.8,29.98,SSE,163,0.0,1.0,87,0.00,,SKC,0.01,VWS V14.01,2013-07-05 09:26:00,
2013-07-05 04:31:00,74.9,70.8,29.98,SSE,163,0.0,0.0,87,0.00,,SKC,0.01,VWS V14.01,2013-07-05 09:31:00,
2013-07-05 04:37:00,74.7,70.6,29.98,SSE,163,0.0,0.0,87,0.00,,SKC,0.01,VWS V14.01,2013-07-05 09:37:00,
2013-07-05 04:42:00,74.6,70.1,29.98,SSE,163,0.0,0.0,86,0.00,,SKC,0.01,VWS V14.01,2013-07-05 09:42:00,
2013-07-05 04:47:00,74.5,70.0,29.98,SSE,163,0.0,1.0,86,0.00,,SKC,0.01,VWS V14.01,2013-07-05 09:47:00,
2013-07-05 04:52:00,74.5,70.0,29.98,SSE,163,0.0,1.0,86,0.00,,SKC,0.01,VWS V14.01,2013-07-05 09:52:00,
2013-07-05 04:57:00,74.5,70.0,29.98,SSE,163,0.0,1.0,86,0.00,,SKC,0.01,VWS V14.01,2013-07-05 09:57:00,
2013-07-05 05:02:00,74.4,69.9,29.98,SSE,163,0.0,0.0,86,0.00,,SKC,0.01,VWS V14.01,2013-07-05 10:02:00,
2013-07-05 05:07:00,74.4,69.6,29.97,SSE,163,0.0,1.0,85,0.00,,SKC,0.01,VWS V14.01,2013-07-05 10:07:00,
2013-07-05 05:13:00,74.4,69.6,29.98,SSE,163,0.0,1.0,85,0.00,,SKC,0.01,VWS V14.01,2013-07-05 10:13:00,
2013-07-05 05:18:00,74.4,69.6,29.98,SSE,163,0.0,1.0,85,0.00,,SKC,0.01,VWS V14.01,2013-07-05 10:18:00,
2013-07-05 05:23:00,74.4,69.6,29.98,SSE,163,0.0,1.0,85,0.00,,SKC,0.01,VWS V14.01,2013-07-05 10:23:00,
2013-07-05 05:28:00,74.5,69.7,29.98,SSE,163,0.0,1.0,85,0.00,,SKC,0.01,VWS V14.01,2013-07-05 10:28:00,
2013-07-05 05:33:00,74.5,69.7,29.98,SSE,163,0.0,1.0,85,0.02,,SKC,0.03,VWS V14.01,2013-07-05 10:33:00,
2013-07-05 05:38:00,74.6,69.8,29.99,SSW,211,4.0,10.0,85,0.07,,SKC,0.08,VWS V14.01,2013-07-05 10:38:00,
2013-07-05 05:44:00,73.8,70.0,29.99,South,181,0.0,10.0,88,0.13,,SKC,0.14,VWS V14.01,2013-07-05 10:44:00,
2013-07-05 05:49:00,73.6,69.8,29.99,South,191,2.0,10.0,88,0.19,,SKC,0.20,VWS V14.01,2013-07-05 10:49:00,
2013-07-05 05:54:00,73.5,69.7,29.99,South,173,4.0,10.0,88,0.28,,SKC,0.29,VWS V14.01,2013-07-05 10:54:00,
2013-07-05 05:59:00,73.5,69.7,29.99,SE,145,7.0,10.0,88,0.28,,SKC,0.29,VWS V14.01,2013-07-05 10:59:00,
2013-07-05 06:04:00,73.7,69.6,30.00,SSE,153,3.0,11.0,87,0.29,,SKC,0.30,VWS V14.01,2013-07-05 11:04:00,
2013-07-05 06:09:00,73.7,69.3,30.00,ESE,123,8.0,11.0,86,0.30,,SKC,0.31,VWS V14.01,2013-07-05 11:09:00,
2013-07-05 06:14:00,73.7,69.3,30.00,East,101,5.0,11.0,86,0.30,,SKC,0.31,VWS V14.01,2013-07-05 11:14:00,
2013-07-05 06:20:00,73.6,69.5,30.00,ESE,110,5.0,11.0,87,0.30,,SKC,0.31,VWS V14.01,2013-07-05 11:20:00,
2013-07-05 06:25:00,73.6,69.2,30.00,ESE,111,4.0,11.0,86,0.30,,SKC,0.31,VWS V14.01,2013-07-05 11:25:00,
2013-07-05 06:30:00,73.5,69.1,30.00,SSE,150,5.0,11.0,86,0.30,,SKC,0.31,VWS V14.01,2013-07-05 11:30:00,
2013-07-05 06:35:00,73.6,69.2,29.99,SSE,148,6.0,8.0,86,0.29,,SKC,0.31,VWS V14.01,2013-07-05 11:35:00,
2013-07-05 06:40:00,73.5,69.4,30.00,SSE,168,0.0,8.0,87,0.29,,SKC,0.31,VWS V14.01,2013-07-05 11:40:00,
2013-07-05 06:45:00,73.4,69.3,30.00,SSW,198,1.0,8.0,87,0.29,,SKC,0.31,VWS V14.01,2013-07-05 11:45:00,
2013-07-05 06:50:00,73.2,69.4,30.00,SSW,194,1.0,8.0,88,0.29,,SKC,0.31,VWS V14.01,2013-07-05 11:50:00,
2013-07-05 06:55:00,73.1,69.3,30.00,SSW,194,0.0,8.0,88,0.29,,SKC,0.31,VWS V14.01,2013-07-05 11:55:00,
2013-07-05 07:00:00,73.0,69.2,30.00,SSW,194,0.0,8.0,88,0.30,,SKC,0.32,VWS V14.01,2013-07-05 12:00:00,
2013-07-05 07:05:00,73.0,69.2,30.00,SE,135,5.0,6.0,88,0.03,,SKC,0.32,VWS V14.01,2013-07-05 12:05:00,
2013-07-05 07:10:00,73.0,69.2,30.00,SSE,156,1.0,6.0,88,0.03,,SKC,0.32,VWS V14.01,2013-07-05 12:10:00,
2013-07-05 07:15:00,72.9,68.8,30.00,WSW,258,0.0,6.0,87,0.03,,SKC,0.32,VWS V14.01,2013-07-05 12:15:00,
2013-07-05 07:20:00,72.9,68.8,30.00,ESE,123,1.0,6.0,87,0.03,,SKC,0.32,VWS V14.01,2013-07-05 12:20:00,
2013-07-05 07:25:00,73.0,68.9,30.00,ESE,123,0.0,6.0,87,0.03,,SKC,0.32,VWS V14.01,2013-07-05 12:25:00,
2013-07-05 07:30:00,73.0,68.9,30.00,ESE,123,0.0,0.0,87,0.01,,SKC,0.32,VWS V14.01,2013-07-05 12:30:00,
2013-07-05 07:35:00,73.1,69.0,30.01,SSE,149,0.0,1.0,87,0.01,,SKC,0.32,VWS V14.01,2013-07-05 12:35:00,
2013-07-05 07:40:00,73.2,68.8,30.01,SE,135,0.0,2.0,86,0.01,,SKC,0.32,VWS V14.01,2013-07-05 12:40:00,
2013-07-05 07:46:00,73.4,69.0,30.01,SE,138,0.0,5.0,86,0.01,,SKC,0.32,VWS V14.01,2013-07-05 12:46:00,
2013-07-05 07:51:00,73.5,69.1,30.02,SSE,148,3.0,7.0,86,0.01,,SKC,0.32,VWS V14.01,2013-07-05 12:51:00,
2013-07-05 07:56:00,73.5,69.1,30.02,SSE,148,2.0,7.0,86,0.01,,SKC,0.32,VWS V14.01,2013-07-05 12:56:00,
2013-07-05 08:01:00,73.5,69.1,30.01,SE,144,0.0,3.0,86,0.00,,SKC,0.32,VWS V14.01,2013-07-05 13:01:00,
2013-07-05 08:06:00,73.6,69.2,30.01,SE,144,7.0,8.0,86,0.00,,SKC,0.32,VWS V14.01,2013-07-05 13:06:00,
2013-07-05 08:11:00,73.6,69.2,30.01,ESE,123,5.0,10.0,86,0.00,,SKC,0.32,VWS V14.01,2013-07-05 13:11:00,
2013-07-05 08:17:00,73.5,69.1,30.01,SE,136,6.0,10.0,86,0.00,,SKC,0.32,VWS V14.01,2013-07-05 13:17:00,
2013-07-05 08:22:00,73.6,68.8,30.01,SE,132,1.0,10.0,85,0.00,,SKC,0.32,VWS V14.01,2013-07-05 13:22:00,
2013-07-05 08:27:00,73.6,68.8,30.02,SE,132,0.0,10.0,85,0.00,,SKC,0.32,VWS V14.01,2013-07-05 13:27:00,
2013-07-05 08:32:00,73.7,68.9,30.02,South,182,0.0,3.0,85,0.01,,SKC,0.33,VWS V14.01,2013-07-05 13:32:00,
2013-07-05 08:37:00,73.7,68.9,30.02,South,182,1.0,3.0,85,0.01,,SKC,0.33,VWS V14.01,2013-07-05 13:37:00,
2013-07-05 08:42:00,73.7,68.9,30.02,SE,138,5.0,6.0,85,0.01,,SKC,0.33,VWS V14.01,2013-07-05 13:42:00,
2013-07-05 08:47:00,73.7,68.9,30.02,NE,55,2.0,7.0,85,0.01,,SKC,0.33,VWS V14.01,2013-07-05 13:47:00,
2013-07-05 08:52:00,73.8,69.0,30.02,ESE,117,5.0,9.0,85,0.01,,SKC,0.33,VWS V14.01,2013-07-05 13:52:00,
2013-07-05 08:57:00,73.9,69.1,30.02,ESE,122,6.0,9.0,85,0.01,,SKC,0.33,VWS V14.01,2013-07-05 13:57:00,
2013-07-05 09:02:00,73.9,69.1,30.02,ESE,113,3.0,5.0,85,0.01,,SKC,0.33,VWS V14.01,2013-07-05 14:02:00,
2013-07-05 09:07:00,73.9,69.1,30.01,SSE,149,1.0,7.0,85,0.01,,SKC,0.33,VWS V14.01,2013-07-05 14:07:00,
2013-07-05 09:12:00,74.0,69.2,30.02,SE,144,5.0,8.0,85,0.01,,SKC,0.33,VWS V14.01,2013-07-05 14:12:00,
2013-07-05 09:17:00,74.0,69.2,30.02,ESE,109,4.0,8.0,85,0.01,,SKC,0.33,VWS V14.01,2013-07-05 14:17:00,
2013-07-05 09:22:00,74.1,69.3,30.02,SE,140,5.0,8.0,85,0.01,,SKC,0.33,VWS V14.01,2013-07-05 14:22:00,
2013-07-05 09:27:00,74.1,69.3,30.03,SE,140,0.0,8.0,85,0.02,,SKC,0.34,VWS V14.01,2013-07-05 14:27:00,
2013-07-05 09:32:00,74.1,69.3,30.03,South,171,0.0,5.0,85,0.02,,SKC,0.35,VWS V14.01,2013-07-05 14:32:00,
2013-07-05 09:37:00,74.2,69.4,30.03,South,171,0.0,5.0,85,0.03,,SKC,0.36,VWS V14.01,2013-07-05 14:37:00,
2013-07-05 09:43:00,74.2,69.4,30.03,SSE,165,7.0,7.0,85,0.04,,SKC,0.37,VWS V14.01,2013-07-05 14:43:00,
2013-07-05 09:48:00,74.1,69.3,30.03,SE,144,4.0,8.0,85,0.04,,SKC,0.37,VWS V14.01,2013-07-05 14:48:00,
2013-07-05 09:53:00,74.0,69.2,30.03,SSE,165,2.0,8.0,85,0.05,,SKC,0.38,VWS V14.01,2013-07-05 14:53:00,
2013-07-05 09:58:00,74.0,69.2,30.03,South,188,0.0,8.0,85,0.06,,SKC,0.39,VWS V14.01,2013-07-05 14:58:00,
2013-07-05 10:03:00,74.0,69.2,30.03,South,188,0.0,1.0,85,0.06,,SKC,0.39,VWS V14.01,2013-07-05 15:03:00,
2013-07-05 10:09:00,74.0,69.2,30.03,South,188,0.0,1.0,85,0.08,,SKC,0.41,VWS V14.01,2013-07-05 15:09:00,
2013-07-05 10:14:00,74.0,69.2,30.03,South,188,0.0,1.0,85,0.10,,SKC,0.43,VWS V14.01,2013-07-05 15:14:00,
2013-07-05 10:19:00,74.0,69.2,30.03,South,188,0.0,1.0,85,0.12,,SKC,0.45,VWS V14.01,2013-07-05 15:19:00,
2013-07-05 10:24:00,73.9,69.1,30.03,South,188,0.0,1.0,85,0.14,,SKC,0.47,VWS V14.01,2013-07-05 15:24:00,
2013-07-05 10:29:00,73.9,69.1,30.03,South,188,0.0,1.0,85,0.16,,SKC,0.49,VWS V14.01,2013-07-05 15:29:00,
2013-07-05 10:34:00,73.9,69.1,30.05,South,188,6.0,6.0,85,0.16,,SKC,0.50,VWS V14.01,2013-07-05 15:34:00,
2013-07-05 10:39:00,73.8,69.0,30.05,South,180,1.0,7.0,85,0.16,,SKC,0.50,VWS V14.01,2013-07-05 15:39:00,
2013-07-05 10:44:00,73.8,69.0,30.06,ESE,108,4.0,7.0,85,0.17,,SKC,0.51,VWS V14.01,2013-07-05 15:44:00,
2013-07-05 10:49:00,73.8,68.7,30.06,SSE,162,0.0,7.0,84,0.17,,SKC,0.51,VWS V14.01,2013-07-05 15:49:00,
2013-07-05 10:54:00,73.8,68.7,30.07,SSE,162,2.0,7.0,84,0.17,,SKC,0.51,VWS V14.01,2013-07-05 15:54:00,
2013-07-05 10:59:00,73.8,68.7,30.07,SSE,162,0.0,7.0,84,0.18,,SKC,0.52,VWS V14.01,2013-07-05 15:59:00,
2013-07-05 11:04:00,73.8,68.7,30.07,SSE,162,0.0,1.0,84,0.14,,SKC,0.53,VWS V14.01,2013-07-05 16:04:00,
2013-07-05 11:09:00,73.8,68.7,30.07,SSE,162,0.0,2.0,84,0.14,,SKC,0.53,VWS V14.01,2013-07-05 16:09:00,
2013-07-05 11:14:00,73.9,68.8,30.07,SSE,162,0.0,2.0,84,0.15,,SKC,0.54,VWS V14.01,2013-07-05 16:14:00,
2013-07-05 11:19:00,73.8,68.7,30.07,SSE,162,0.0,6.0,84,0.16,,SKC,0.55,VWS V14.01,2013-07-05 16:19:00,
2013-07-05 11:24:00,73.8,68.7,30.07,SSE,162,1.0,6.0,84,0.18,,SKC,0.57,VWS V14.01,2013-07-05 16:24:00,
2013-07-05 11:29:00,73.7,68.6,30.07,SSE,162,4.0,6.0,84,0.20,,SKC,0.59,VWS V14.01,2013-07-05 16:29:00,
2013-07-05 11:34:00,73.7,68.6,30.06,SSE,162,5.0,6.0,84,0.11,,SKC,0.60,VWS V14.01,2013-07-05 16:34:00,
2013-07-05 11:35:00,73.7,68.6,30.06,SSE,162,4.0,6.0,84,0.11,,SKC,0.60,VWS V14.01,2013-07-05 16:35:00,
2013-07-05 11:40:00,73.7,68.6,30.06,SSE,162,0.0,6.0,84,0.12,,SKC,0.61,VWS V14.01,2013-07-05 16:40:00,
2013-07-05 11:45:00,73.6,68.5,30.07,SW,215,4.0,6.0,84,0.12,,SKC,0.61,VWS V14.01,2013-07-05 16:45:00,
2013-07-05 11:50:00,73.5,68.4,30.06,SSW,192,1.0,6.0,84,0.12,,SKC,0.61,VWS V14.01,2013-07-05 16:50:00,
2013-07-05 11:55:00,73.3,68.5,30.07,SSE,147,5.0,7.0,85,0.12,,SKC,0.61,VWS V14.01,2013-07-05 16:55:00,
2013-07-05 12:00:00,73.2,68.4,30.07,SSE,154,1.0,8.0,85,0.13,,SKC,0.62,VWS V14.01,2013-07-05 17:00:00,
2013-07-05 12:04:00,73.2,68.4,30.07,SSE,154,0.0,3.0,85,0.11,,SKC,0.64,VWS V14.01,2013-07-05 17:04:00,
2013-07-05 12:09:00,73.1,68.3,30.07,SSE,154,3.0,6.0,85,0.12,,SKC,0.65,VWS V14.01,2013-07-05 17:09:00,
2013-07-05 12:14:00,73.0,68.2,30.07,SSE,159,3.0,8.0,85,0.14,,SKC,0.67,VWS V14.01,2013-07-05 17:14:00,
2013-07-05 12:19:00,72.9,68.1,30.07,SSW,207,1.0,8.0,85,0.16,,SKC,0.69,VWS V14.01,2013-07-05 17:19:00,
2013-07-05 12:24:00,72.9,68.1,30.07,South,189,4.0,12.0,85,0.18,,SKC,0.71,VWS V14.01,2013-07-05 17:24:00,
2013-07-05 12:29:00,72.8,68.0,30.07,SSW,198,5.0,13.0,85,0.18,,SKC,0.71,VWS V14.01,2013-07-05 17:29:00,
2013-07-05 12:34:00,72.7,67.9,30.07,South,173,4.0,10.0,85,0.12,,SKC,0.71,VWS V14.01,2013-07-05 17:34:00,
2013-07-05 12:39:00,72.7,67.9,30.07,SSE,160,6.0,10.0,85,0.12,,SKC,0.71,VWS V14.01,2013-07-05 17:39:00,
2013-07-05 12:44:00,72.4,68.0,30.07,SSE,161,1.0,10.0,86,0.13,,SKC,0.72,VWS V14.01,2013-07-05 17:44:00,
2013-07-05 12:49:00,72.4,68.0,30.07,SSE,161,0.0,10.0,86,0.13,,SKC,0.72,VWS V14.01,2013-07-05 17:49:00,
2013-07-05 12:54:00,72.4,68.3,30.07,SSE,161,1.0,10.0,87,0.13,,SKC,0.72,VWS V14.01,2013-07-05 17:54:00,
2013-07-05 12:59:00,72.5,68.1,30.06,SSE,163,0.0,10.0,86,0.13,,SKC,0.72,VWS V14.01,2013-07-05 17:59:00,
2013-07-05 13:04:00,72.5,68.4,30.06,WSW,238,0.0,6.0,87,0.10,,SKC,0.72,VWS V14.01,2013-07-05 18:04:00,
2013-07-05 13:09:00,72.6,68.5,30.06,WSW,237,3.0,6.0,87,0.10,,SKC,0.72,VWS V14.01,2013-07-05 18:09:00,
2013-07-05 13:14:00,72.5,68.4,30.06,WSW,237,2.0,6.0,87,0.10,,SKC,0.72,VWS V14.01,2013-07-05 18:14:00,
2013-07-05 13:19:00,72.6,68.5,30.06,WSW,237,0.0,6.0,87,0.10,,SKC,0.72,VWS V14.01,2013-07-05 18:19:00,
2013-07-05 13:24:00,72.7,68.9,30.06,SSW,213,0.0,6.0,88,0.10,,SKC,0.72,VWS V14.01,2013-07-05 18:24:00,
2013-07-05 13:29:00,72.8,69.0,30.07,SSW,213,0.0,6.0,88,0.10,,SKC,0.72,VWS V14.01,2013-07-05 18:29:00,
2013-07-05 13:34:00,72.7,68.9,30.07,SSW,213,1.0,2.0,88,0.01,,SKC,0.72,VWS V14.01,2013-07-05 18:34:00,
2013-07-05 13:39:00,72.7,68.9,30.07,SSW,209,0.0,5.0,88,0.02,,SKC,0.73,VWS V14.01,2013-07-05 18:39:00,
2013-07-05 13:44:00,72.7,69.3,30.08,SSW,209,0.0,5.0,89,0.02,,SKC,0.73,VWS V14.01,2013-07-05 18:44:00,
2013-07-05 13:49:00,72.8,69.0,30.08,SSW,209,0.0,5.0,88,0.03,,SKC,0.74,VWS V14.01,2013-07-05 18:49:00,
2013-07-05 13:54:00,72.9,69.1,30.07,SSW,209,0.0,5.0,88,0.03,,SKC,0.74,VWS V14.01,2013-07-05 18:54:00,
2013-07-05 13:59:00,73.0,68.9,30.07,SSW,209,0.0,5.0,87,0.04,,SKC,0.75,VWS V14.01,2013-07-05 18:59:00,
2013-07-05 14:00:00,73.0,68.9,30.07,SSW,209,0.0,5.0,87,0.04,,SKC,0.75,VWS V14.01,2013-07-05 19:00:00,
2013-07-05 14:05:00,73.2,69.1,30.07,SSW,209,1.0,5.0,87,0.04,,SKC,0.76,VWS V14.01,2013-07-05 19:05:00,
2013-07-05 14:10:00,73.3,69.2,30.06,SSW,209,2.0,6.0,87,0.04,,SKC,0.76,VWS V14.01,2013-07-05 19:10:00,
2013-07-05 14:15:00,73.5,69.4,30.06,West,260,0.0,7.0,87,0.04,,SKC,0.76,VWS V14.01,2013-07-05 19:15:00,
2013-07-05 14:20:00,73.7,69.6,30.05,WSW,258,4.0,7.0,87,0.05,,SKC,0.77,VWS V14.01,2013-07-05 19:20:00,
2013-07-05 14:25:00,73.8,70.0,30.05,West,261,6.0,7.0,88,0.05,,SKC,0.77,VWS V14.01,2013-07-05 19:25:00,
2013-07-05 14:30:00,73.9,70.1,30.05,WSW,253,1.0,7.0,88,0.05,,SKC,0.77,VWS V14.01,2013-07-05 19:30:00,
2013-07-05 14:35:00,73.9,70.1,30.04,West,260,1.0,10.0,88,0.05,,SKC,0.77,VWS V14.01,2013-07-05 19:35:00,
2013-07-05 14:40:00,73.9,70.1,30.04,SW,225,4.0,10.0,88,0.05,,SKC,0.77,VWS V14.01,2013-07-05 19:40:00,
2013-07-05 14:45:00,73.9,70.1,30.03,SW,223,4.0,10.0,88,0.05,,SKC,0.77,VWS V14.01,2013-07-05 19:45:00,
2013-07-05 14:50:00,74.0,70.6,30.03,WSW,240,1.0,10.0,89,0.05,,SKC,0.77,VWS V14.01,2013-07-05 19:50:00,
2013-07-05 14:55:00,74.1,70.3,30.03,West,265,0.0,10.0,88,0.05,,SKC,0.77,VWS V14.01,2013-07-05 19:55:00,
2013-07-05 15:00:00,74.2,70.4,30.03,West,265,0.0,10.0,88,0.05,,SKC,0.77,VWS V14.01,2013-07-05 20:00:00,
2013-07-05 15:05:00,74.1,70.7,30.03,West,265,0.0,5.0,89,0.02,,SKC,0.77,VWS V14.01,2013-07-05 20:05:00,
2013-07-05 15:10:00,74.0,70.6,30.03,West,265,0.0,6.0,89,0.02,,SKC,0.77,VWS V14.01,2013-07-05 20:10:00,
2013-07-05 15:15:00,74.0,70.6,30.03,SW,221,1.0,6.0,89,0.02,,SKC,0.77,VWS V14.01,2013-07-05 20:15:00,
2013-07-05 15:20:00,74.2,70.8,30.03,SW,221,0.0,6.0,89,0.02,,SKC,0.77,VWS V14.01,2013-07-05 20:20:00,
2013-07-05 15:25:00,74.3,70.8,30.03,SW,221,0.0,6.0,89,0.02,,SKC,0.77,VWS V14.01,2013-07-05 20:25:00,
2013-07-05 15:30:00,74.5,71.1,30.03,ESE,121,0.0,6.0,89,0.02,,SKC,0.77,VWS V14.01,2013-07-05 20:30:00,
2013-07-05 15:35:00,74.4,70.9,30.02,ESE,121,0.0,1.0,89,0.00,,SKC,0.77,VWS V14.01,2013-07-05 20:35:00,
2013-07-05 15:40:00,74.5,71.1,30.03,SSE,153,0.0,1.0,89,0.00,,SKC,0.77,VWS V14.01,2013-07-05 20:40:00,
2013-07-05 15:45:00,74.5,71.4,30.02,SSE,153,0.0,1.0,90,0.00,,SKC,0.77,VWS V14.01,2013-07-05 20:45:00,
2013-07-05 15:50:00,74.6,71.2,30.03,SSE,153,0.0,1.0,89,0.00,,SKC,0.77,VWS V14.01,2013-07-05 20:50:00,
2013-07-05 15:55:00,74.6,71.2,30.02,SE,146,0.0,3.0,89,0.00,,SKC,0.77,VWS V14.01,2013-07-05 20:55:00,
2013-07-05 16:00:00,74.7,71.2,30.02,SE,146,0.0,3.0,89,0.00,,SKC,0.77,VWS V14.01,2013-07-05 21:00:00,
2013-07-05 16:05:00,74.7,71.2,30.02,SE,126,3.0,6.0,89,0.00,,SKC,0.77,VWS V14.01,2013-07-05 21:05:00,
2013-07-05 16:10:00,74.7,71.2,30.02,ESE,123,4.0,6.0,89,0.00,,SKC,0.77,VWS V14.01,2013-07-05 21:10:00,
2013-07-05 16:15:00,74.6,71.2,30.02,ESE,119,3.0,7.0,89,0.00,,SKC,0.77,VWS V14.01,2013-07-05 21:15:00,
2013-07-05 16:20:00,74.6,71.2,30.02,SE,143,8.0,8.0,89,0.00,,SKC,0.77,VWS V14.01,2013-07-05 21:20:00,
2013-07-05 16:25:00,74.6,71.2,30.02,ESE,113,2.0,8.0,89,0.00,,SKC,0.77,VWS V14.01,2013-07-05 21:25:00,
2013-07-05 16:30:00,74.5,71.1,30.02,ESE,111,6.0,9.0,89,0.00,,SKC,0.77,VWS V14.01,2013-07-05 21:30:00,
2013-07-05 16:35:00,74.3,71.2,30.02,ESE,120,1.0,9.0,90,0.00,,SKC,0.77,VWS V14.01,2013-07-05 21:35:00,
2013-07-05 16:40:00,74.2,71.1,30.02,SE,140,7.0,9.0,90,0.00,,SKC,0.77,VWS V14.01,2013-07-05 21:40:00,
2013-07-05 16:45:00,74.0,70.9,30.02,SE,140,2.0,9.0,90,0.00,,SKC,0.77,VWS V14.01,2013-07-05 21:45:00,
2013-07-05 16:50:00,73.9,70.8,30.02,SE,140,1.0,9.0,90,0.00,,SKC,0.77,VWS V14.01,2013-07-05 21:50:00,
2013-07-05 16:55:00,73.8,70.7,30.02,SE,140,3.0,9.0,90,0.00,,SKC,0.77,VWS V14.01,2013-07-05 21:55:00,
2013-07-05 17:00:00,73.8,70.7,30.02,SSE,168,2.0,9.0,90,0.00,,SKC,0.77,VWS V14.01,2013-07-05 22:00:00,
2013-07-05 17:05:00,73.8,70.7,30.02,SSE,167,0.0,6.0,90,0.00,,SKC,0.77,VWS V14.01,2013-07-05 22:05:00,
2013-07-05 17:10:00,73.7,70.3,30.02,SSE,168,2.0,6.0,89,0.00,,SKC,0.77,VWS V14.01,2013-07-05 22:10:00,
2013-07-05 17:15:00,73.7,70.6,30.02,SSE,167,0.0,6.0,90,0.00,,SKC,0.77,VWS V14.01,2013-07-05 22:15:00,
2013-07-05 17:20:00,73.6,70.2,30.02,SSE,167,1.0,6.0,89,0.00,,SKC,0.77,VWS V14.01,2013-07-05 22:20:00,
2013-07-05 17:25:00,73.6,70.2,30.02,SSE,167,0.0,6.0,89,0.00,,SKC,0.77,VWS V14.01,2013-07-05 22:25:00,
2013-07-05 17:30:00,73.5,70.1,30.02,SSE,167,2.0,6.0,89,0.00,,SKC,0.77,VWS V14.01,2013-07-05 22:30:00,
2013-07-05 17:35:00,73.6,70.2,30.02,SSE,167,0.0,7.0,89,0.00,,SKC,0.77,VWS V14.01,2013-07-05 22:35:00,
2013-07-05 17:40:00,73.5,70.1,30.02,SSE,167,0.0,7.0,89,0.00,,SKC,0.77,VWS V14.01,2013-07-05 22:40:00,
2013-07-05 17:45:00,73.5,70.1,30.02,SSE,149,4.0,8.0,89,0.00,,SKC,0.77,VWS V14.01,2013-07-05 22:45:00,
2013-07-05 17:50:00,73.5,69.7,30.02,ESE,117,8.0,8.0,88,0.00,,SKC,0.77,VWS V14.01,2013-07-05 22:50:00,
2013-07-05 17:55:00,73.3,69.9,30.02,SSE,150,3.0,12.0,89,0.00,,SKC,0.77,VWS V14.01,2013-07-05 22:55:00,
2013-07-05 18:00:00,73.1,69.7,30.02,SE,126,7.0,12.0,89,0.00,,SKC,0.77,VWS V14.01,2013-07-05 23:00:00,
2013-07-05 18:05:00,73.0,69.6,30.02,SE,124,7.0,8.0,89,0.00,,SKC,0.77,VWS V14.01,2013-07-05 23:05:00,
2013-07-05 18:10:00,72.8,69.4,30.02,ESE,123,4.0,9.0,89,0.00,,SKC,0.77,VWS V14.01,2013-07-05 23:10:00,
2013-07-05 18:15:00,72.7,68.9,30.01,SE,138,1.0,9.0,88,0.00,,SKC,0.77,VWS V14.01,2013-07-05 23:15:00,
2013-07-05 18:20:00,72.6,68.8,30.01,SE,134,6.0,10.0,88,0.00,,SKC,0.77,VWS V14.01,2013-07-05 23:20:00,
2013-07-05 18:25:00,72.5,68.8,30.01,SE,142,2.0,10.0,88,0.00,,SKC,0.77,VWS V14.01,2013-07-05 23:25:00,
2013-07-05 18:30:00,72.4,68.7,30.01,SE,142,2.0,10.0,88,0.01,,SKC,0.78,VWS V14.01,2013-07-05 23:30:00,
2013-07-05 18:35:00,72.4,68.7,30.02,SE,142,4.0,6.0,88,0.01,,SKC,0.78,VWS V14.01,2013-07-05 23:35:00,
2013-07-05 18:40:00,72.3,68.6,30.02,SE,142,0.0,6.0,88,0.01,,SKC,0.78,VWS V14.01,2013-07-05 23:40:00,
2013-07-05 18:45:00,72.2,68.4,30.02,SE,142,2.0,6.0,88,0.02,,SKC,0.79,VWS V14.01,2013-07-05 23:45:00,
2013-07-05 18:50:00,72.1,68.3,30.02,SE,142,1.0,6.0,88,0.02,,SKC,0.79,VWS V14.01,2013-07-05 23:50:00,
2013-07-05 18:55:00,72.1,68.3,30.02,SE,142,0.0,6.0,88,0.02,,SKC,0.79,VWS V14.01,2013-07-05 23:55:00,
2013-07-05 19:00:00,72.0,67.9,30.02,SE,142,0.0,6.0,87,0.02,,SKC,0.79,VWS V14.01,2013-07-06 00:00:00,
2013-07-05 19:05:00,72.0,67.9,30.01,SE,142,0.0,5.0,87,0.02,,SKC,0.79,VWS V14.01,2013-07-06 00:05:00,
2013-07-05 19:10:00,71.9,67.8,30.01,SE,142,0.0,5.0,87,0.02,,SKC,0.79,VWS V14.01,2013-07-06 00:10:00,
2013-07-05 19:15:00,72.0,67.9,30.01,SE,145,0.0,5.0,87,0.03,,SKC,0.80,VWS V14.01,2013-07-06 00:15:00,
2013-07-05 19:20:00,72.0,67.9,30.01,SE,145,3.0,7.0,87,0.03,,SKC,0.80,VWS V14.01,2013-07-06 00:20:00,
2013-07-05 19:25:00,72.0,67.6,30.01,SE,134,6.0,9.0,86,0.03,,SKC,0.80,VWS V14.01,2013-07-06 00:25:00,
2013-07-05 19:30:00,72.0,67.6,30.01,ESE,121,6.0,9.0,86,0.03,,SKC,0.80,VWS V14.01,2013-07-06 00:30:00,
2013-07-05 19:35:00,72.0,67.6,30.01,SE,136,6.0,10.0,86,0.02,,SKC,0.80,VWS V14.01,2013-07-06 00:35:00,
2013-07-05 19:40:00,72.0,67.6,30.01,SSE,150,5.0,10.0,86,0.02,,SKC,0.80,VWS V14.01,2013-07-06 00:40:00,
2013-07-05 19:45:00,72.1,67.3,30.01,SE,138,8.0,10.0,85,0.02,,SKC,0.80,VWS V14.01,2013-07-06 00:45:00,
2013-07-05 19:50:00,72.2,67.4,30.01,SE,143,1.0,10.0,85,0.02,,SKC,0.80,VWS V14.01,2013-07-06 00:50:00,
2013-07-05 19:55:00,72.2,67.4,30.00,SE,146,6.0,10.0,85,0.02,,SKC,0.80,VWS V14.01,2013-07-06 00:55:00,
2013-07-05 20:00:00,72.3,67.5,30.00,SSE,148,5.0,10.0,85,0.02,,SKC,0.80,VWS V14.01,2013-07-06 01:00:00,
2013-07-05 20:05:00,72.3,67.9,30.00,SSE,148,1.0,7.0,86,0.01,,SKC,0.80,VWS V14.01,2013-07-06 01:05:00,
2013-07-05 20:10:00,72.4,67.6,30.00,SSE,154,5.0,8.0,85,0.01,,SKC,0.80,VWS V14.01,2013-07-06 01:10:00,
2013-07-05 20:14:00,72.4,67.6,30.00,SSE,155,3.0,8.0,85,0.01,,SKC,0.80,VWS V14.01,2013-07-06 01:14:00,
2013-07-05 20:19:00,72.5,67.7,30.00,SSE,155,3.0,8.0,85,0.01,,SKC,0.80,VWS V14.01,2013-07-06 01:19:00,
2013-07-05 20:24:00,72.4,68.0,30.00,SE,146,5.0,8.0,86,0.01,,SKC,0.80,VWS V14.01,2013-07-06 01:24:00,
2013-07-05 20:29:00,72.4,68.0,30.00,SSE,148,4.0,8.0,86,0.01,,SKC,0.80,VWS V14.01,2013-07-06 01:29:00,
2013-07-05 20:34:00,72.5,68.1,29.99,SE,146,5.0,9.0,86,0.00,,SKC,0.80,VWS V14.01,2013-07-06 01:34:00,
2013-07-05 20:39:00,72.6,68.2,29.99,SSE,163,7.0,9.0,86,0.00,,SKC,0.80,VWS V14.01,2013-07-06 01:39:00,
2013-07-05 20:44:00,72.6,68.2,29.99,SSE,147,8.0,9.0,86,0.00,,SKC,0.80,VWS V14.01,2013-07-06 01:44:00,
2013-07-05 20:49:00,72.6,68.5,29.99,SSE,148,1.0,9.0,87,0.00,,SKC,0.80,VWS V14.01,2013-07-06 01:49:00,
2013-07-05 20:54:00,72.6,68.5,29.99,SE,135,8.0,9.0,87,0.00,,SKC,0.80,VWS V14.01,2013-07-06 01:54:00,
2013-07-05 20:59:00,72.6,68.5,29.99,SE,144,7.0,9.0,87,0.00,,SKC,0.80,VWS V14.01,2013-07-06 01:59:00,
2013-07-05 21:04:00,72.6,68.5,29.99,SE,144,5.0,7.0,87,0.00,,SKC,0.80,VWS V14.01,2013-07-06 02:04:00,
2013-07-05 21:09:00,72.5,68.8,29.99,SE,144,8.0,9.0,88,0.00,,SKC,0.80,VWS V14.01,2013-07-06 02:09:00,
2013-07-05 21:14:00,72.5,68.8,29.99,SE,140,2.0,9.0,88,0.00,,SKC,0.80,VWS V14.01,2013-07-06 02:14:00,
2013-07-05 21:19:00,72.5,69.1,29.99,SE,146,7.0,9.0,89,0.00,,SKC,0.80,VWS V14.01,2013-07-06 02:19:00,
2013-07-05 21:24:00,72.4,69.0,29.99,ESE,110,5.0,9.0,89,0.00,,SKC,0.80,VWS V14.01,2013-07-06 02:24:00,
2013-07-05 21:29:00,72.4,69.0,29.99,ESE,122,0.0,11.0,89,0.00,,SKC,0.80,VWS V14.01,2013-07-06 02:29:00,
2013-07-05 21:34:00,72.4,69.0,29.99,SE,133,7.0,8.0,89,0.00,,SKC,0.80,VWS V14.01,2013-07-06 02:34:00,
2013-07-05 21:39:00,72.3,68.9,29.99,SE,133,6.0,9.0,89,0.00,,SKC,0.80,VWS V14.01,2013-07-06 02:39:00,
2013-07-05 21:44:00,72.4,69.0,29.99,SE,134,7.0,9.0,89,0.00,,SKC,0.80,VWS V14.01,2013-07-06 02:44:00,
2013-07-05 21:49:00,72.4,68.7,29.98,SE,141,4.0,11.0,88,0.00,,SKC,0.80,VWS V14.01,2013-07-06 02:49:00,
2013-07-05 21:54:00,72.5,68.8,29.98,SE,141,4.0,11.0,88,0.00,,SKC,0.80,VWS V14.01,2013-07-06 02:54:00,
2013-07-05 21:59:00,72.6,68.8,29.98,SE,128,7.0,11.0,88,0.00,,SKC,0.80,VWS V14.01,2013-07-06 02:59:00,
2013-07-05 22:04:00,72.6,68.8,29.98,SE,132,6.0,9.0,88,0.00,,SKC,0.80,VWS V14.01,2013-07-06 03:04:00,
2013-07-05 22:09:00,72.7,68.9,29.99,SE,127,6.0,12.0,88,0.00,,SKC,0.80,VWS V14.01,2013-07-06 03:09:00,
2013-07-05 22:14:00,72.8,69.4,29.99,SE,125,5.0,12.0,89,0.00,,SKC,0.80,VWS V14.01,2013-07-06 03:14:00,
2013-07-05 22:19:00,72.9,69.5,29.99,SE,124,0.0,12.0,89,0.00,,SKC,0.80,VWS V14.01,2013-07-06 03:19:00,
2013-07-05 22:20:00,72.9,69.5,29.99,SE,124,0.0,12.0,89,0.00,,SKC,0.80,VWS V14.01,2013-07-06 03:20:00,
2013-07-05 22:24:00,72.9,69.5,29.99,SE,125,2.0,12.0,89,0.00,,SKC,0.80,VWS V14.01,2013-07-06 03:24:00,
2013-07-05 22:29:00,72.9,69.5,29.99,SE,125,1.0,12.0,89,0.00,,SKC,0.80,VWS V14.01,2013-07-06 03:29:00,
2013-07-05 22:34:00,73.0,69.2,29.99,SE,127,2.0,7.0,88,0.00,,SKC,0.80,VWS V14.01,2013-07-06 03:34:00,
2013-07-05 22:39:00,73.1,69.3,29.99,SE,127,4.0,7.0,88,0.00,,SKC,0.80,VWS V14.01,2013-07-06 03:39:00,
2013-07-05 22:44:00,73.2,69.4,29.99,SE,127,1.0,7.0,88,0.00,,SKC,0.80,VWS V14.01,2013-07-06 03:44:00,
2013-07-05 22:49:00,73.3,69.5,29.99,SE,127,2.0,7.0,88,0.00,,SKC,0.80,VWS V14.01,2013-07-06 03:49:00,
2013-07-05 22:54:00,73.4,69.6,29.99,SE,129,0.0,7.0,88,0.00,,SKC,0.80,VWS V14.01,2013-07-06 03:54:00,
2013-07-05 22:59:00,73.4,69.6,29.99,SE,135,1.0,7.0,88,0.00,,SKC,0.80,VWS V14.01,2013-07-06 03:59:00,
2013-07-05 23:01:00,73.4,69.6,29.99,SE,135,0.0,4.0,88,0.00,,SKC,0.80,VWS V14.01,2013-07-06 04:01:00,
2013-07-05 23:06:00,73.4,69.6,30.00,SE,135,1.0,4.0,88,0.00,,SKC,0.80,VWS V14.01,2013-07-06 04:06:00,
2013-07-05 23:11:00,73.5,69.7,30.00,SE,135,0.0,5.0,88,0.00,,SKC,0.80,VWS V14.01,2013-07-06 04:11:00,
2013-07-05 23:16:00,73.5,69.7,30.00,SE,135,0.0,5.0,88,0.01,,SKC,0.81,VWS V14.01,2013-07-06 04:16:00,
2013-07-05 23:21:00,73.6,69.8,30.00,SE,135,5.0,6.0,88,0.01,,SKC,0.81,VWS V14.01,2013-07-06 04:21:00,
2013-07-05 23:26:00,73.6,69.8,29.99,SE,135,0.0,6.0,88,0.01,,SKC,0.81,VWS V14.01,2013-07-06 04:26:00,
2013-07-05 23:31:00,73.6,69.8,29.99,SE,135,1.0,4.0,88,0.01,,SKC,0.81,VWS V14.01,2013-07-06 04:31:00,
2013-07-05 23:36:00,73.6,69.8,29.99,SE,135,3.0,5.0,88,0.01,,SKC,0.81,VWS V14.01,2013-07-06 04:36:00,
2013-07-05 23:41:00,73.7,69.9,29.99,SE,137,5.0,8.0,88,0.01,,SKC,0.81,VWS V14.01,2013-07-06 04:41:00,
2013-07-05 23:46:00,73.7,69.9,29.99,SE,137,7.0,8.0,88,0.01,,SKC,0.81,VWS V14.01,2013-07-06 04:46:00,
2013-07-05 23:51:00,73.8,70.0,29.99,SE,137,0.0,8.0,88,0.01,,SKC,0.81,VWS V14.01,2013-07-06 04:51:00,
2013-07-05 23:56:00,73.8,70.0,29.99,SE,137,0.0,8.0,88,0.01,,SKC,0.81,VWS V14.01,2013-07-06 04:56:00,